KKLS/KLS METAR and TAF weather

Enter ICAO airport designator
Station Type Date Time Source
KKLS METAR 2022/01/25 04:56 UTC NOAA

KKLS 250456Z AUTO 00000KT 10SM OVC007 01/00 A3032 RMK AO2 SLP270 T00110000 FZRANO


Station Type Date Time Source
KKLS Decoded METAR 2022/01/25 04:56 UTC NOAA

Kelso, Kelso-Longview Airport, WA, United States (KKLS) 46-07N 122-54W
Jan 24, 2022 - 11:56 PM EST / 2022.01.25 0456 UTC
Wind: Calm:0
Visibility: 10 mile(s):0
Sky conditions: overcast
Temperature: 34.0 F (1.1 C)
Dew Point: 32.0 F (0.0 C)
Relative Humidity: 92%
Pressure (altimeter): 30.32 in. Hg (1026 hPa)
ob: KKLS 250456Z AUTO 00000KT 10SM OVC007 01/00 A3032 RMK AO2 SLP270 T00110000 FZRANO
cycle: 5

Station Type Date Time Source
KKLS TAF UTC NOAA

Error!

Example: see airport list